sensor_id;sensor_type;location;lat;lon;timestamp;pressure;altitude;pressure_sealevel;temperature;humidity
64095;BME280;50353;51.420;5.682;2022-11-13T00:00:56;102403.28;;;7.47;92.40
64095;BME280;50353;51.420;5.682;2022-11-13T00:03:21;102404.16;;;7.47;91.64
64095;BME280;50353;51.420;5.682;2022-11-13T00:05:47;102406.78;;;7.49;90.86
64095;BME280;50353;51.420;5.682;2022-11-13T00:08:12;102408.75;;;7.37;90.86
64095;BME280;50353;51.420;5.682;2022-11-13T00:10:38;102406.97;;;7.39;90.44
64095;BME280;50353;51.420;5.682;2022-11-13T00:13:03;102398.81;;;7.52;89.72
64095;BME280;50353;51.420;5.682;2022-11-13T00:15:28;102396.66;;;7.28;89.24
64095;BME280;50353;51.420;5.682;2022-11-13T00:17:54;102393.31;;;7.22;91.98
64095;BME280;50353;51.420;5.682;2022-11-13T00:20:19;102391.44;;;7.27;91.42
64095;BME280;50353;51.420;5.682;2022-11-13T00:22:45;102389.66;;;7.27;92.22
64095;BME280;50353;51.420;5.682;2022-11-13T00:25:10;102389.81;;;7.20;92.41
64095;BME280;50353;51.420;5.682;2022-11-13T00:27:36;102387.66;;;7.39;89.67
64095;BME280;50353;51.420;5.682;2022-11-13T00:30:01;102389.00;;;7.18;89.92
64095;BME280;50353;51.420;5.682;2022-11-13T00:32:26;102384.56;;;7.21;91.46
64095;BME280;50353;51.420;5.682;2022-11-13T00:34:52;102383.03;;;7.09;93.55
64095;BME280;50353;51.420;5.682;2022-11-13T00:37:18;102381.94;;;7.21;93.02
64095;BME280;50353;51.420;5.682;2022-11-13T00:39:43;102374.69;;;7.31;92.37
64095;BME280;50353;51.420;5.682;2022-11-13T00:42:08;102377.09;;;7.42;92.32
64095;BME280;50353;51.420;5.682;2022-11-13T00:44:34;102369.75;;;7.17;93.29
64095;BME280;50353;51.420;5.682;2022-11-13T00:46:59;102368.84;;;7.17;93.46
64095;BME280;50353;51.420;5.682;2022-11-13T00:49:24;102364.25;;;7.28;92.65
64095;BME280;50353;51.420;5.682;2022-11-13T00:51:50;102366.88;;;7.28;92.43
64095;BME280;50353;51.420;5.682;2022-11-13T00:54:15;102360.41;;;7.41;91.03
64095;BME280;50353;51.420;5.682;2022-11-13T00:56:40;102365.97;;;7.29;88.98
64095;BME280;50353;51.420;5.682;2022-11-13T00:59:06;102362.56;;;7.24;93.11
64095;BME280;50353;51.420;5.682;2022-11-13T01:01:31;102362.72;;;7.18;93.74
64095;BME280;50353;51.420;5.682;2022-11-13T01:03:56;102365.69;;;7.41;92.76
64095;BME280;50353;51.420;5.682;2022-11-13T01:06:24;102353.50;;;7.37;93.46
64095;BME280;50353;51.420;5.682;2022-11-13T01:08:49;102348.25;;;7.37;93.70
64095;BME280;50353;51.420;5.682;2022-11-13T01:11:20;102349.09;;;7.39;93.87
64095;BME280;50353;51.420;5.682;2022-11-13T01:13:47;102352.25;;;7.15;93.33
64095;BME280;50353;51.420;5.682;2022-11-13T01:16:13;102352.47;;;7.04;91.60
64095;BME280;50353;51.420;5.682;2022-11-13T01:18:40;102354.03;;;7.13;89.86
64095;BME280;50353;51.420;5.682;2022-11-13T01:21:10;102348.59;;;7.22;92.16
64095;BME280;50353;51.420;5.682;2022-11-13T01:23:36;102348.22;;;6.98;89.20
64095;BME280;50353;51.420;5.682;2022-11-13T01:26:22;102340.63;;;6.83;90.05
64095;BME280;50353;51.420;5.682;2022-11-13T01:28:48;102343.84;;;6.97;91.49
64095;BME280;50353;51.420;5.682;2022-11-13T01:31:19;102342.03;;;6.99;92.19
64095;BME280;50353;51.420;5.682;2022-11-13T01:33:46;102330.72;;;6.97;93.65
64095;BME280;50353;51.420;5.682;2022-11-13T01:36:15;102331.25;;;7.11;92.85
64095;BME280;50353;51.420;5.682;2022-11-13T01:38:40;102333.19;;;7.03;93.31
64095;BME280;50353;51.420;5.682;2022-11-13T01:41:06;102332.69;;;7.28;92.05
64095;BME280;50353;51.420;5.682;2022-11-13T01:43:34;102319.94;;;7.09;91.07
64095;BME280;50353;51.420;5.682;2022-11-13T01:46:04;102332.72;;;7.25;90.16
64095;BME280;50353;51.420;5.682;2022-11-13T01:48:36;102327.19;;;7.37;89.42
64095;BME280;50353;51.420;5.682;2022-11-13T01:51:10;102332.44;;;6.98;87.27
64095;BME280;50353;51.420;5.682;2022-11-13T01:53:37;102325.38;;;7.00;87.56
64095;BME280;50353;51.420;5.682;2022-11-13T01:56:05;102329.84;;;6.95;90.04
64095;BME280;50353;51.420;5.682;2022-11-13T01:58:31;102321.94;;;6.97;91.93
64095;BME280;50353;51.420;5.682;2022-11-13T02:00:56;102323.59;;;7.01;91.66
64095;BME280;50353;51.420;5.682;2022-11-13T02:03:21;102327.91;;;7.06;89.11
64095;BME280;50353;51.420;5.682;2022-11-13T02:05:47;102326.94;;;7.10;87.04
64095;BME280;50353;51.420;5.682;2022-11-13T02:08:12;102325.88;;;7.18;86.98
64095;BME280;50353;51.420;5.682;2022-11-13T02:10:37;102325.44;;;6.97;86.20
64095;BME280;50353;51.420;5.682;2022-11-13T02:13:03;102317.16;;;6.75;86.84
64095;BME280;50353;51.420;5.682;2022-11-13T02:15:30;102309.31;;;6.72;88.48
64095;BME280;50353;51.420;5.682;2022-11-13T02:17:59;102309.47;;;6.64;87.83
64095;BME280;50353;51.420;5.682;2022-11-13T02:20:44;102309.56;;;6.59;88.85
64095;BME280;50353;51.420;5.682;2022-11-13T02:25:49;102295.88;;;6.43;89.05
64095;BME280;50353;51.420;5.682;2022-11-13T02:28:16;102300.56;;;6.71;91.02
64095;BME280;50353;51.420;5.682;2022-11-13T02:30:41;102296.78;;;6.85;91.88
64095;BME280;50353;51.420;5.682;2022-11-13T02:33:30;102298.75;;;6.73;91.14
64095;BME280;50353;51.420;5.682;2022-11-13T02:35:56;102296.31;;;6.66;89.13
64095;BME280;50353;51.420;5.682;2022-11-13T02:38:21;102284.63;;;6.81;90.81
64095;BME280;50353;51.420;5.682;2022-11-13T02:40:46;102289.03;;;6.79;92.41
64095;BME280;50353;51.420;5.682;2022-11-13T02:43:11;102284.91;;;6.65;93.08
64095;BME280;50353;51.420;5.682;2022-11-13T02:45:37;102284.00;;;6.68;93.29
64095;BME280;50353;51.420;5.682;2022-11-13T02:48:03;102283.31;;;7.00;92.28
64095;BME280;50353;51.420;5.682;2022-11-13T02:50:28;102291.03;;;7.08;91.53
64095;BME280;50353;51.420;5.682;2022-11-13T02:52:54;102290.13;;;7.10;91.42
64095;BME280;50353;51.420;5.682;2022-11-13T02:55:19;102294.94;;;6.90;91.77
64095;BME280;50353;51.420;5.682;2022-11-13T02:57:45;102291.91;;;6.66;90.49
64095;BME280;50353;51.420;5.682;2022-11-13T03:00:10;102281.63;;;6.98;90.87
64095;BME280;50353;51.420;5.682;2022-11-13T03:02:37;102286.03;;;6.97;90.41
64095;BME280;50353;51.420;5.682;2022-11-13T03:05:03;102294.13;;;6.86;90.52
64095;BME280;50353;51.420;5.682;2022-11-13T03:07:29;102279.38;;;6.81;91.05
64095;BME280;50353;51.420;5.682;2022-11-13T03:09:54;102292.28;;;6.91;90.17
64095;BME280;50353;51.420;5.682;2022-11-13T03:12:19;102276.41;;;6.96;90.90
64095;BME280;50353;51.420;5.682;2022-11-13T03:14:44;102274.38;;;6.68;91.83
64095;BME280;50353;51.420;5.682;2022-11-13T03:17:10;102278.81;;;6.65;90.87
64095;BME280;50353;51.420;5.682;2022-11-13T03:19:35;102261.41;;;6.59;89.77
64095;BME280;50353;51.420;5.682;2022-11-13T03:22:00;102268.81;;;6.82;91.27
64095;BME280;50353;51.420;5.682;2022-11-13T03:24:26;102264.31;;;6.87;90.89
64095;BME280;50353;51.420;5.682;2022-11-13T03:26:51;102267.81;;;6.88;90.68
64095;BME280;50353;51.420;5.682;2022-11-13T03:29:16;102262.41;;;6.96;89.80
64095;BME280;50353;51.420;5.682;2022-11-13T03:31:41;102267.69;;;6.92;88.51
64095;BME280;50353;51.420;5.682;2022-11-13T03:34:07;102267.38;;;6.67;90.38
64095;BME280;50353;51.420;5.682;2022-11-13T03:36:32;102265.44;;;6.75;89.18
64095;BME280;50353;51.420;5.682;2022-11-13T03:38:58;102265.06;;;6.92;87.83
64095;BME280;50353;51.420;5.682;2022-11-13T03:41:23;102260.06;;;6.82;86.70
64095;BME280;50353;51.420;5.682;2022-11-13T03:43:48;102258.53;;;6.71;86.87
64095;BME280;50353;51.420;5.682;2022-11-13T03:46:13;102251.34;;;6.80;87.12
64095;BME280;50353;51.420;5.682;2022-11-13T03:48:39;102252.34;;;6.74;89.37
64095;BME280;50353;51.420;5.682;2022-11-13T03:51:04;102252.47;;;6.68;89.14
64095;BME280;50353;51.420;5.682;2022-11-13T03:53:30;102253.38;;;6.67;89.33
64095;BME280;50353;51.420;5.682;2022-11-13T03:55:55;102249.13;;;6.59;89.66
64095;BME280;50353;51.420;5.682;2022-11-13T03:58:21;102250.56;;;6.74;89.04
64095;BME280;50353;51.420;5.682;2022-11-13T04:00:47;102247.81;;;6.81;89.77
64095;BME280;50353;51.420;5.682;2022-11-13T04:03:12;102245.00;;;6.88;89.25
64095;BME280;50353;51.420;5.682;2022-11-13T04:05:38;102234.72;;;6.79;88.99
64095;BME280;50353;51.420;5.682;2022-11-13T04:08:04;102240.41;;;6.59;90.53
64095;BME280;50353;51.420;5.682;2022-11-13T04:10:29;102226.88;;;6.76;91.04
64095;BME280;50353;51.420;5.682;2022-11-13T04:12:55;102231.06;;;6.86;90.46
64095;BME280;50353;51.420;5.682;2022-11-13T04:15:20;102230.31;;;6.80;90.54
64095;BME280;50353;51.420;5.682;2022-11-13T04:17:47;102233.94;;;6.74;91.78
64095;BME280;50353;51.420;5.682;2022-11-13T04:20:12;102218.16;;;6.75;91.42
64095;BME280;50353;51.420;5.682;2022-11-13T04:22:37;102218.94;;;6.79;90.82
64095;BME280;50353;51.420;5.682;2022-11-13T04:25:04;102230.50;;;6.70;89.87
64095;BME280;50353;51.420;5.682;2022-11-13T04:27:29;102225.56;;;6.56;90.48
64095;BME280;50353;51.420;5.682;2022-11-13T04:29:54;102223.50;;;6.29;90.60
64095;BME280;50353;51.420;5.682;2022-11-13T04:32:20;102218.22;;;6.30;90.89
64095;BME280;50353;51.420;5.682;2022-11-13T04:34:45;102213.59;;;6.41;89.74
64095;BME280;50353;51.420;5.682;2022-11-13T04:37:10;102212.25;;;6.22;89.94
64095;BME280;50353;51.420;5.682;2022-11-13T04:39:35;102204.84;;;6.42;90.08
64095;BME280;50353;51.420;5.682;2022-11-13T04:42:01;102200.25;;;6.08;92.39
64095;BME280;50353;51.420;5.682;2022-11-13T04:44:44;102203.16;;;6.38;89.27
64095;BME280;50353;51.420;5.682;2022-11-13T04:47:10;102194.88;;;6.16;89.04
64095;BME280;50353;51.420;5.682;2022-11-13T04:49:35;102194.84;;;6.18;89.11
64095;BME280;50353;51.420;5.682;2022-11-13T04:52:00;102202.31;;;6.36;88.25
64095;BME280;50353;51.420;5.682;2022-11-13T04:54:26;102193.94;;;6.17;89.78
64095;BME280;50353;51.420;5.682;2022-11-13T04:56:51;102197.50;;;6.15;88.66
64095;BME280;50353;51.420;5.682;2022-11-13T04:59:16;102194.34;;;5.99;88.30
64095;BME280;50353;51.420;5.682;2022-11-13T05:01:41;102199.31;;;6.13;86.00
64095;BME280;50353;51.420;5.682;2022-11-13T05:04:11;102194.38;;;5.94;87.72
64095;BME280;50353;51.420;5.682;2022-11-13T05:06:36;102193.91;;;6.20;85.21
64095;BME280;50353;51.420;5.682;2022-11-13T05:09:01;102193.50;;;5.93;88.41
64095;BME280;50353;51.420;5.682;2022-11-13T05:11:26;102189.22;;;5.89;86.60
64095;BME280;50353;51.420;5.682;2022-11-13T05:13:52;102188.41;;;5.86;87.83
64095;BME280;50353;51.420;5.682;2022-11-13T05:16:17;102190.25;;;5.79;86.96
64095;BME280;50353;51.420;5.682;2022-11-13T05:18:42;102179.41;;;5.52;90.99
64095;BME280;50353;51.420;5.682;2022-11-13T05:21:09;102178.19;;;5.70;91.19
64095;BME280;50353;51.420;5.682;2022-11-13T05:23:34;102180.56;;;5.84;89.68
64095;BME280;50353;51.420;5.682;2022-11-13T05:26:07;102169.47;;;5.68;92.16
64095;BME280;50353;51.420;5.682;2022-11-13T05:28:33;102172.09;;;5.68;89.08
64095;BME280;50353;51.420;5.682;2022-11-13T05:31:12;102156.75;;;5.48;90.29
64095;BME280;50353;51.420;5.682;2022-11-13T05:33:38;102168.75;;;5.60;90.84
64095;BME280;50353;51.420;5.682;2022-11-13T05:38:32;102160.56;;;5.79;89.14
64095;BME280;50353;51.420;5.682;2022-11-13T05:41:06;102147.56;;;5.71;89.22
64095;BME280;50353;51.420;5.682;2022-11-13T05:43:32;102142.00;;;5.88;90.04
64095;BME280;50353;51.420;5.682;2022-11-13T05:46:03;102145.09;;;6.10;86.28
64095;BME280;50353;51.420;5.682;2022-11-13T05:48:28;102139.47;;;6.29;87.66
64095;BME280;50353;51.420;5.682;2022-11-13T05:50:59;102122.41;;;6.07;88.49
64095;BME280;50353;51.420;5.682;2022-11-13T05:53:25;102131.38;;;5.94;88.87
64095;BME280;50353;51.420;5.682;2022-11-13T05:55:50;102136.47;;;6.03;87.43
64095;BME280;50353;51.420;5.682;2022-11-13T05:58:16;102137.53;;;5.91;87.25
64095;BME280;50353;51.420;5.682;2022-11-13T06:00:41;102130.84;;;5.78;85.59
64095;BME280;50353;51.420;5.682;2022-11-13T06:03:06;102129.13;;;5.75;85.76
64095;BME280;50353;51.420;5.682;2022-11-13T06:05:34;102135.19;;;5.78;86.81
64095;BME280;50353;51.420;5.682;2022-11-13T06:07:59;102119.16;;;5.93;84.78
64095;BME280;50353;51.420;5.682;2022-11-13T06:10:24;102125.53;;;5.81;84.78
64095;BME280;50353;51.420;5.682;2022-11-13T06:12:50;102123.03;;;5.73;84.68
64095;BME280;50353;51.420;5.682;2022-11-13T06:15:15;102119.84;;;5.56;85.45
64095;BME280;50353;51.420;5.682;2022-11-13T06:17:44;102120.00;;;5.50;nan
64095;BME280;50353;51.420;5.682;2022-11-13T06:20:10;102109.38;;;5.56;85.26
64095;BME280;50353;51.420;5.682;2022-11-13T06:22:35;102117.47;;;5.44;86.23
64095;BME280;50353;51.420;5.682;2022-11-13T06:25:00;102112.31;;;5.39;84.96
64095;BME280;50353;51.420;5.682;2022-11-13T06:27:26;102115.84;;;5.36;85.17
64095;BME280;50353;51.420;5.682;2022-11-13T06:29:51;102120.94;;;5.46;84.48
64095;BME280;50353;51.420;5.682;2022-11-13T06:32:17;102119.22;;;5.43;83.45
64095;BME280;50353;51.420;5.682;2022-11-13T06:34:42;102114.25;;;5.29;83.81
64095;BME280;50353;51.420;5.682;2022-11-13T06:37:07;102116.00;;;5.27;84.33
64095;BME280;50353;51.420;5.682;2022-11-13T06:39:32;102100.69;;;5.02;84.53
64095;BME280;50353;51.420;5.682;2022-11-13T06:41:58;102107.34;;;5.22;84.09
64095;BME280;50353;51.420;5.682;2022-11-13T06:44:23;102110.84;;;5.22;85.94
64095;BME280;50353;51.420;5.682;2022-11-13T06:46:48;102110.88;;;5.21;86.43
64095;BME280;50353;51.420;5.682;2022-11-13T06:49:14;102113.44;;;5.24;87.61
64095;BME280;50353;51.420;5.682;2022-11-13T06:51:39;102105.44;;;5.33;86.21
64095;BME280;50353;51.420;5.682;2022-11-13T06:54:04;102114.22;;;5.31;86.32
64095;BME280;50353;51.420;5.682;2022-11-13T06:56:30;102107.41;;;5.19;84.70
64095;BME280;50353;51.420;5.682;2022-11-13T06:58:55;102106.38;;;5.29;86.03
64095;BME280;50353;51.420;5.682;2022-11-13T07:01:22;102105.22;;;4.93;84.97
64095;BME280;50353;51.420;5.682;2022-11-13T07:03:48;102103.41;;;4.98;84.72
64095;BME280;50353;51.420;5.682;2022-11-13T07:06:17;102104.41;;;4.89;86.36
64095;BME280;50353;51.420;5.682;2022-11-13T07:08:43;102108.28;;;5.18;85.75
64095;BME280;50353;51.420;5.682;2022-11-13T07:11:14;102111.25;;;4.99;88.70
64095;BME280;50353;51.420;5.682;2022-11-13T07:13:39;102109.28;;;5.12;86.48
64095;BME280;50353;51.420;5.682;2022-11-13T07:16:06;102108.34;;;5.15;85.42
64095;BME280;50353;51.420;5.682;2022-11-13T07:18:32;102111.47;;;5.37;83.70
64095;BME280;50353;51.420;5.682;2022-11-13T07:21:01;102108.41;;;5.12;84.90
64095;BME280;50353;51.420;5.682;2022-11-13T07:23:27;102111.88;;;5.12;85.10
64095;BME280;50353;51.420;5.682;2022-11-13T07:25:52;102116.13;;;5.21;83.85
64095;BME280;50353;51.420;5.682;2022-11-13T07:28:19;102110.88;;;5.21;82.91
64095;BME280;50353;51.420;5.682;2022-11-13T07:30:44;102101.84;;;4.86;84.75
64095;BME280;50353;51.420;5.682;2022-11-13T07:33:10;102100.69;;;5.02;84.85
64095;BME280;50353;51.420;5.682;2022-11-13T07:35:35;102104.00;;;5.14;84.46
64095;BME280;50353;51.420;5.682;2022-11-13T07:38:01;102099.84;;;5.02;85.67
64095;BME280;50353;51.420;5.682;2022-11-13T07:40:26;102103.22;;;5.08;87.34
64095;BME280;50353;51.420;5.682;2022-11-13T07:42:58;102099.97;;;5.46;85.80
64095;BME280;50353;51.420;5.682;2022-11-13T07:45:24;102087.25;;;5.69;85.08
64095;BME280;50353;51.420;5.682;2022-11-13T07:47:50;102083.25;;;5.51;86.29
64095;BME280;50353;51.420;5.682;2022-11-13T07:50:15;102090.59;;;5.78;87.05
64095;BME280;50353;51.420;5.682;2022-11-13T07:52:41;102088.53;;;5.50;89.51
64095;BME280;50353;51.420;5.682;2022-11-13T07:55:06;102088.84;;;5.76;88.87
64095;BME280;50353;51.420;5.682;2022-11-13T07:57:32;102083.50;;;5.83;88.65
64095;BME280;50353;51.420;5.682;2022-11-13T07:59:57;102074.22;;;6.10;87.74
64095;BME280;50353;51.420;5.682;2022-11-13T08:02:22;102073.44;;;6.05;88.06
64095;BME280;50353;51.420;5.682;2022-11-13T08:04:48;102069.66;;;6.18;87.12
64095;BME280;50353;51.420;5.682;2022-11-13T08:07:13;102072.91;;;6.30;86.96
64095;BME280;50353;51.420;5.682;2022-11-13T08:09:38;102074.56;;;6.34;87.10
64095;BME280;50353;51.420;5.682;2022-11-13T08:12:04;102071.91;;;6.35;88.31
64095;BME280;50353;51.420;5.682;2022-11-13T08:14:29;102071.31;;;6.62;86.92
64095;BME280;50353;51.420;5.682;2022-11-13T08:16:54;102069.38;;;6.70;86.40
64095;BME280;50353;51.420;5.682;2022-11-13T08:19:20;102073.25;;;6.89;85.97
64095;BME280;50353;51.420;5.682;2022-11-13T08:21:45;102077.22;;;7.06;85.33
64095;BME280;50353;51.420;5.682;2022-11-13T08:24:10;102066.66;;;7.07;84.91
64095;BME280;50353;51.420;5.682;2022-11-13T08:26:37;102061.94;;;7.22;85.03
64095;BME280;50353;51.420;5.682;2022-11-13T08:29:03;102060.78;;;7.32;84.66
64095;BME280;50353;51.420;5.682;2022-11-13T08:31:28;102066.53;;;7.47;84.73
64095;BME280;50353;51.420;5.682;2022-11-13T08:33:53;102059.22;;;7.56;84.01
64095;BME280;50353;51.420;5.682;2022-11-13T08:36:19;102059.94;;;7.63;83.98
64095;BME280;50353;51.420;5.682;2022-11-13T08:38:46;102062.16;;;7.78;83.13
64095;BME280;50353;51.420;5.682;2022-11-13T08:41:11;102059.09;;;7.92;83.62
64095;BME280;50353;51.420;5.682;2022-11-13T08:43:37;102058.91;;;7.99;83.68
64095;BME280;50353;51.420;5.682;2022-11-13T08:46:02;102050.84;;;8.05;84.49
64095;BME280;50353;51.420;5.682;2022-11-13T08:48:27;102048.16;;;8.06;84.69
64095;BME280;50353;51.420;5.682;2022-11-13T08:50:54;102047.94;;;8.12;85.05
64095;BME280;50353;51.420;5.682;2022-11-13T08:53:21;102042.34;;;8.25;85.05
64095;BME280;50353;51.420;5.682;2022-11-13T08:55:46;102042.22;;;8.28;85.42
64095;BME280;50353;51.420;5.682;2022-11-13T08:58:12;102035.53;;;8.46;84.00
64095;BME280;50353;51.420;5.682;2022-11-13T09:00:37;102032.63;;;8.55;83.71
64095;BME280;50353;51.420;5.682;2022-11-13T09:03:03;102036.72;;;8.64;82.97
64095;BME280;50353;51.420;5.682;2022-11-13T09:05:28;102032.06;;;8.72;83.41
64095;BME280;50353;51.420;5.682;2022-11-13T09:07:58;102036.22;;;8.79;82.79
64095;BME280;50353;51.420;5.682;2022-11-13T09:10:24;102037.50;;;8.93;83.62
64095;BME280;50353;51.420;5.682;2022-11-13T09:12:56;102036.09;;;9.09;83.51
64095;BME280;50353;51.420;5.682;2022-11-13T09:15:22;102039.97;;;9.24;80.21
64095;BME280;50353;51.420;5.682;2022-11-13T09:17:47;102035.44;;;9.28;80.26
64095;BME280;50353;51.420;5.682;2022-11-13T09:20:12;102035.38;;;9.29;78.34
64095;BME280;50353;51.420;5.682;2022-11-13T09:22:38;102040.28;;;9.40;81.11
64095;BME280;50353;51.420;5.682;2022-11-13T09:25:03;102044.53;;;9.44;80.53
64095;BME280;50353;51.420;5.682;2022-11-13T09:27:28;102035.63;;;9.47;81.82
64095;BME280;50353;51.420;5.682;2022-11-13T09:29:54;102029.22;;;9.54;81.58
64095;BME280;50353;51.420;5.682;2022-11-13T09:32:19;102028.16;;;9.60;81.11
64095;BME280;50353;51.420;5.682;2022-11-13T09:34:44;102022.91;;;9.58;78.25
64095;BME280;50353;51.420;5.682;2022-11-13T09:37:09;102024.34;;;9.67;79.88
64095;BME280;50353;51.420;5.682;2022-11-13T09:39:35;102027.78;;;9.69;78.01
64095;BME280;50353;51.420;5.682;2022-11-13T09:42:16;102031.75;;;9.81;77.28
64095;BME280;50353;51.420;5.682;2022-11-13T09:44:46;102019.88;;;9.93;79.03
64095;BME280;50353;51.420;5.682;2022-11-13T09:47:19;102025.16;;;9.93;77.40
64095;BME280;50353;51.420;5.682;2022-11-13T09:49:49;102027.66;;;9.96;77.88
64095;BME280;50353;51.420;5.682;2022-11-13T09:52:20;102022.09;;;10.04;78.75
64095;BME280;50353;51.420;5.682;2022-11-13T09:54:47;102021.34;;;10.00;78.71
64095;BME280;50353;51.420;5.682;2022-11-13T09:57:27;102019.38;;;10.05;77.21
64095;BME280;50353;51.420;5.682;2022-11-13T10:00:05;102005.28;;;10.05;76.83
64095;BME280;50353;51.420;5.682;2022-11-13T10:08:29;102022.31;;;10.21;75.97
64095;BME280;50353;51.420;5.682;2022-11-13T10:13:43;102008.03;;;10.25;75.77
64095;BME280;50353;51.420;5.682;2022-11-13T10:16:20;102009.09;;;10.43;74.28
64095;BME280;50353;51.420;5.682;2022-11-13T10:18:52;102013.03;;;10.55;74.27
64095;BME280;50353;51.420;5.682;2022-11-13T10:21:32;102001.13;;;10.65;72.77
64095;BME280;50353;51.420;5.682;2022-11-13T10:24:03;102019.19;;;10.76;73.77
64095;BME280;50353;51.420;5.682;2022-11-13T10:26:29;102003.66;;;10.89;72.36
64095;BME280;50353;51.420;5.682;2022-11-13T10:29:09;102006.25;;;10.91;73.49
64095;BME280;50353;51.420;5.682;2022-11-13T10:31:47;102006.44;;;11.07;72.26
64095;BME280;50353;51.420;5.682;2022-11-13T10:34:14;102004.97;;;11.20;71.36
64095;BME280;50353;51.420;5.682;2022-11-13T10:39:14;102001.44;;;11.40;70.26
64095;BME280;50353;51.420;5.682;2022-11-13T10:41:51;101995.53;;;11.54;69.59
64095;BME280;50353;51.420;5.682;2022-11-13T10:46:45;101991.72;;;11.79;66.27
64095;BME280;50353;51.420;5.682;2022-11-13T10:49:16;101995.13;;;11.82;67.12
64095;BME280;50353;51.420;5.682;2022-11-13T10:51:42;101987.84;;;11.86;66.64
64095;BME280;50353;51.420;5.682;2022-11-13T10:54:28;101990.47;;;11.88;67.60
64095;BME280;50353;51.420;5.682;2022-11-13T10:57:05;101992.06;;;12.11;66.48
64095;BME280;50353;51.420;5.682;2022-11-13T10:59:42;101983.41;;;12.25;66.56
64095;BME280;50353;51.420;5.682;2022-11-13T11:04:45;101971.28;;;12.38;65.56
64095;BME280;50353;51.420;5.682;2022-11-13T11:07:16;101980.31;;;12.51;64.29
64095;BME280;50353;51.420;5.682;2022-11-13T11:09:43;101977.53;;;12.55;64.93
64095;BME280;50353;51.420;5.682;2022-11-13T11:12:13;101964.28;;;12.72;63.36
64095;BME280;50353;51.420;5.682;2022-11-13T11:17:20;101967.94;;;12.87;62.86
64095;BME280;50353;51.420;5.682;2022-11-13T11:19:54;101961.72;;;13.04;62.07
64095;BME280;50353;51.420;5.682;2022-11-13T11:22:25;101960.81;;;13.05;61.62
64095;BME280;50353;51.420;5.682;2022-11-13T11:25:12;101963.91;;;13.13;61.52
64095;BME280;50353;51.420;5.682;2022-11-13T11:27:53;101962.47;;;13.24;60.10
64095;BME280;50353;51.420;5.682;2022-11-13T11:30:22;101938.25;;;13.30;59.89
64095;BME280;50353;51.420;5.682;2022-11-13T11:33:19;101950.91;;;13.42;63.34
64095;BME280;50353;51.420;5.682;2022-11-13T11:36:17;101936.66;;;13.59;60.20
64095;BME280;50353;51.420;5.682;2022-11-13T11:38:56;101927.34;;;13.52;60.38
64095;BME280;50353;51.420;5.682;2022-11-13T11:41:30;101934.81;;;13.77;60.32
64095;BME280;50353;51.420;5.682;2022-11-13T11:46:34;101926.38;;;13.85;60.56
64095;BME280;50353;51.420;5.682;2022-11-13T11:49:00;101917.72;;;13.97;61.01
64095;BME280;50353;51.420;5.682;2022-11-13T11:52:11;101911.22;;;13.87;61.22
64095;BME280;50353;51.420;5.682;2022-11-13T12:00:17;101899.47;;;14.22;60.14
64095;BME280;50353;51.420;5.682;2022-11-13T12:08:47;101893.63;;;14.31;62.10
64095;BME280;50353;51.420;5.682;2022-11-13T12:11:29;101891.75;;;14.33;60.77
64095;BME280;50353;51.420;5.682;2022-11-13T12:16:41;101886.63;;;14.44;59.16
64095;BME280;50353;51.420;5.682;2022-11-13T12:19:21;101876.97;;;14.58;58.29
64095;BME280;50353;51.420;5.682;2022-11-13T12:22:03;101871.47;;;14.61;59.13
64095;BME280;50353;51.420;5.682;2022-11-13T12:24:39;101874.72;;;14.66;55.80
64095;BME280;50353;51.420;5.682;2022-11-13T12:32:32;101849.81;;;14.67;55.51
64095;BME280;50353;51.420;5.682;2022-11-13T12:35:16;101844.41;;;14.68;55.69
64095;BME280;50353;51.420;5.682;2022-11-13T12:40:41;101841.06;;;14.65;55.88
64095;BME280;50353;51.420;5.682;2022-11-13T12:43:32;101824.34;;;14.63;54.41
64095;BME280;50353;51.420;5.682;2022-11-13T12:46:06;101824.06;;;14.67;54.31
64095;BME280;50353;51.420;5.682;2022-11-13T12:48:38;101823.66;;;14.59;55.43
64095;BME280;50353;51.420;5.682;2022-11-13T12:51:16;101821.94;;;14.58;55.16
64095;BME280;50353;51.420;5.682;2022-11-13T12:53:48;101805.03;;;14.59;55.36
64095;BME280;50353;51.420;5.682;2022-11-13T13:01:44;101811.97;;;14.76;54.43
64095;BME280;50353;51.420;5.682;2022-11-13T13:07:15;101795.75;;;14.66;54.82
64095;BME280;50353;51.420;5.682;2022-11-13T13:15:23;101785.75;;;14.84;55.47
64095;BME280;50353;51.420;5.682;2022-11-13T13:20:38;101774.81;;;14.60;57.27
64095;BME280;50353;51.420;5.682;2022-11-13T13:23:05;101771.69;;;14.53;57.86
64095;BME280;50353;51.420;5.682;2022-11-13T13:25:33;101764.63;;;14.52;56.97
64095;BME280;50353;51.420;5.682;2022-11-13T13:28:19;101767.69;;;14.61;57.48
64095;BME280;50353;51.420;5.682;2022-11-13T13:31:12;101763.69;;;14.53;58.20
64095;BME280;50353;51.420;5.682;2022-11-13T13:36:37;101751.25;;;14.54;58.59
64095;BME280;50353;51.420;5.682;2022-11-13T13:39:21;101747.63;;;14.55;58.08
64095;BME280;50353;51.420;5.682;2022-11-13T13:42:01;101751.59;;;14.48;58.75
64095;BME280;50353;51.420;5.682;2022-11-13T13:44:41;101745.19;;;14.66;58.77
64095;BME280;50353;51.420;5.682;2022-11-13T13:47:34;101730.31;;;14.48;57.59
64095;BME280;50353;51.420;5.682;2022-11-13T13:50:05;101727.22;;;14.41;58.70
64095;BME280;50353;51.420;5.682;2022-11-13T13:52:33;101733.19;;;14.45;57.82
64095;BME280;50353;51.420;5.682;2022-11-13T13:55:01;101719.97;;;14.43;57.77
64095;BME280;50353;51.420;5.682;2022-11-13T13:57:28;101720.94;;;14.42;58.55
64095;BME280;50353;51.420;5.682;2022-11-13T13:59:54;101734.31;;;14.41;57.58
64095;BME280;50353;51.420;5.682;2022-11-13T14:02:21;101722.16;;;14.36;57.53
64095;BME280;50353;51.420;5.682;2022-11-13T14:04:52;101728.25;;;14.39;56.82
64095;BME280;50353;51.420;5.682;2022-11-13T14:07:28;101720.09;;;14.42;55.99
64095;BME280;50353;51.420;5.682;2022-11-13T14:12:32;101710.69;;;14.36;57.35
64095;BME280;50353;51.420;5.682;2022-11-13T14:14:57;101715.91;;;14.23;58.04